Time,TemperatureF,DewpointF,PressureIn,WindDirection,WindDirectionDegrees,WindSpeedMPH,WindSpeedGustMPH,Humidity,HourlyPrecipIn,Conditions,Clouds,dailyrainin,SolarRadiationWatts/m^2,SoftwareType,DateUTC
2013-03-12 00:02:00,45.0,42.0,-100.00,WSW,241,5.0,7.0,90,0.00,,,0.00,1.000000,,2013-03-12 07:02:00,
2013-03-12 00:32:00,41.0,39.0,-100.00,East,92,2.0,6.0,91,0.00,,,0.00,1.000000,,2013-03-12 07:32:00,
2013-03-12 00:42:00,41.0,39.0,-100.00,East,92,2.0,6.0,91,0.00,,,0.00,1.000000,,2013-03-12 07:42:00,
2013-03-12 00:52:00,41.0,39.0,-100.00,East,92,2.0,6.0,91,0.00,,,0.00,1.000000,,2013-03-12 07:52:00,
2013-03-12 01:02:00,41.0,39.0,-100.00,East,92,2.0,6.0,91,0.00,,,0.00,1.000000,,2013-03-12 08:02:00,
2013-03-12 01:33:00,40.0,38.0,-100.00,SW,216,4.0,6.0,94,0.00,,,0.00,1.000000,,2013-03-12 08:33:00,
2013-03-12 01:42:00,40.0,38.0,-100.00,SW,216,4.0,6.0,94,0.00,,,0.00,1.000000,,2013-03-12 08:42:00,
2013-03-12 01:52:00,40.0,38.0,-100.00,SW,216,4.0,6.0,94,0.00,,,0.00,1.000000,,2013-03-12 08:52:00,
2013-03-12 02:02:00,40.0,38.0,-100.00,SW,216,4.0,6.0,94,0.00,,,0.00,1.000000,,2013-03-12 09:02:00,
2013-03-12 02:33:00,39.0,37.0,-100.00,South,184,1.0,7.0,93,0.00,,,0.00,1.000000,,2013-03-12 09:33:00,
2013-03-12 02:42:00,39.0,37.0,-100.00,South,184,1.0,7.0,93,0.00,,,0.00,1.000000,,2013-03-12 09:42:00,
2013-03-12 02:52:00,39.0,37.0,-100.00,South,184,1.0,7.0,93,0.00,,,0.00,1.000000,,2013-03-12 09:52:00,
2013-03-12 03:02:00,39.0,37.0,-100.00,South,184,1.0,7.0,93,0.00,,,0.00,1.000000,,2013-03-12 10:02:00,
2013-03-12 03:33:00,39.0,38.0,-100.00,WNW,289,1.0,4.0,96,0.00,,,0.00,1.000000,,2013-03-12 10:33:00,
2013-03-12 03:42:00,39.0,38.0,-100.00,WNW,289,1.0,4.0,96,0.00,,,0.00,1.000000,,2013-03-12 10:42:00,
2013-03-12 03:52:00,39.0,38.0,-100.00,WNW,289,1.0,4.0,96,0.00,,,0.00,1.000000,,2013-03-12 10:52:00,
2013-03-12 04:02:00,39.0,38.0,-100.00,WNW,289,1.0,4.0,96,0.00,,,0.00,1.000000,,2013-03-12 11:02:00,
2013-03-12 04:32:00,36.0,35.0,-100.00,North,2,2.0,4.0,97,0.00,,,-99.99,1.000000,,2013-03-12 11:32:00,
2013-03-12 04:42:00,36.0,35.0,-100.00,North,2,2.0,4.0,97,0.00,,,-99.99,1.000000,,2013-03-12 11:42:00,
2013-03-12 04:52:00,36.0,35.0,-100.00,North,2,2.0,4.0,97,0.00,,,-99.99,1.000000,,2013-03-12 11:52:00,
2013-03-12 05:02:00,36.0,35.0,-100.00,North,2,2.0,4.0,97,0.00,,,-99.99,1.000000,,2013-03-12 12:02:00,
2013-03-12 05:32:00,35.0,34.0,-100.00,North,1,3.0,5.0,97,0.00,,,0.00,1.000000,,2013-03-12 12:32:00,
2013-03-12 05:42:00,35.0,34.0,-100.00,North,1,3.0,5.0,97,0.00,,,0.00,1.000000,,2013-03-12 12:42:00,
2013-03-12 05:52:00,35.0,34.0,-100.00,North,1,3.0,5.0,97,0.00,,,0.00,1.000000,,2013-03-12 12:52:00,
2013-03-12 06:01:00,35.0,34.0,-100.00,North,1,3.0,5.0,97,0.00,,,0.00,1.000000,,2013-03-12 13:01:00,
2013-03-12 06:33:00,35.0,34.0,-100.00,SE,142,1.0,4.0,98,0.00,,,0.00,1.000000,,2013-03-12 13:33:00,
2013-03-12 06:43:00,35.0,34.0,-100.00,SE,142,1.0,4.0,98,0.00,,,0.00,1.000000,,2013-03-12 13:43:00,
2013-03-12 06:52:00,35.0,34.0,-100.00,SE,142,1.0,4.0,98,0.00,,,0.00,1.000000,,2013-03-12 13:52:00,
2013-03-12 07:02:00,35.0,34.0,-100.00,SE,142,1.0,4.0,98,0.00,,,0.00,1.000000,,2013-03-12 14:02:00,
2013-03-12 07:33:00,32.0,32.0,-100.00,NNW,327,2.0,5.0,98,0.00,,,0.00,1.000000,,2013-03-12 14:33:00,
2013-03-12 07:42:00,32.0,32.0,-100.00,NNW,327,2.0,5.0,98,0.00,,,0.00,1.000000,,2013-03-12 14:42:00,
2013-03-12 07:53:00,32.0,32.0,-100.00,NNW,327,2.0,5.0,98,0.00,,,0.00,1.000000,,2013-03-12 14:53:00,
2013-03-12 08:02:00,32.0,32.0,-100.00,NNW,327,2.0,5.0,98,0.00,,,0.00,1.000000,,2013-03-12 15:02:00,
2013-03-12 08:32:00,34.0,34.0,-100.00,NNW,333,1.0,6.0,98,0.00,,,0.00,23.000000,,2013-03-12 15:32:00,
2013-03-12 08:42:00,34.0,34.0,-100.00,NNW,333,1.0,6.0,98,0.00,,,0.00,23.000000,,2013-03-12 15:42:00,
2013-03-12 08:53:00,34.0,34.0,-100.00,NNW,333,1.0,6.0,98,0.00,,,0.00,23.000000,,2013-03-12 15:53:00,
2013-03-12 09:02:00,34.0,34.0,-100.00,NNW,333,1.0,6.0,98,0.00,,,0.00,23.000000,,2013-03-12 16:02:00,
2013-03-12 09:33:00,38.0,37.0,-100.00,East,88,1.0,2.0,98,0.00,,,0.00,93.000000,,2013-03-12 16:33:00,
2013-03-12 09:43:00,38.0,37.0,-100.00,East,88,1.0,2.0,98,0.00,,,0.00,93.000000,,2013-03-12 16:43:00,
2013-03-12 09:53:00,38.0,37.0,-100.00,East,88,1.0,2.0,98,0.00,,,0.00,93.000000,,2013-03-12 16:53:00,
2013-03-12 10:02:00,38.0,37.0,-100.00,East,88,1.0,2.0,98,0.00,,,0.00,93.000000,,2013-03-12 17:02:00,
2013-03-12 10:34:00,42.0,41.0,-100.00,ENE,58,2.0,4.0,96,0.00,,,0.00,141.000000,,2013-03-12 17:34:00,
2013-03-12 10:44:00,42.0,41.0,-100.00,ENE,58,2.0,4.0,96,0.00,,,0.00,141.000000,,2013-03-12 17:44:00,
2013-03-12 10:53:00,42.0,41.0,-100.00,ENE,58,2.0,4.0,96,0.00,,,0.00,141.000000,,2013-03-12 17:53:00,
2013-03-12 11:02:00,42.0,41.0,-100.00,ENE,58,2.0,4.0,96,0.00,,,0.00,141.000000,,2013-03-12 18:02:00,
2013-03-12 11:33:00,47.0,43.0,-100.00,West,278,3.0,5.0,86,0.00,,,0.00,226.000000,,2013-03-12 18:33:00,
2013-03-12 11:43:00,47.0,43.0,-100.00,West,278,3.0,5.0,86,0.00,,,0.00,226.000000,,2013-03-12 18:43:00,
2013-03-12 11:53:00,47.0,43.0,-100.00,West,278,3.0,5.0,86,0.00,,,0.00,226.000000,,2013-03-12 18:53:00,
2013-03-12 12:03:00,47.0,43.0,-100.00,West,278,3.0,5.0,86,0.00,,,0.00,226.000000,,2013-03-12 19:03:00,
2013-03-12 12:33:00,53.0,44.0,-100.00,ESE,109,2.0,4.0,71,0.00,,,0.00,390.000000,,2013-03-12 19:33:00,
2013-03-12 12:43:00,53.0,44.0,-100.00,ESE,109,2.0,4.0,71,0.00,,,0.00,390.000000,,2013-03-12 19:43:00,
2013-03-12 12:53:00,53.0,44.0,-100.00,ESE,109,2.0,4.0,71,0.00,,,0.00,390.000000,,2013-03-12 19:53:00,
2013-03-12 13:02:00,53.0,44.0,-100.00,ESE,109,2.0,4.0,71,0.00,,,0.00,390.000000,,2013-03-12 20:02:00,
2013-03-12 13:33:00,57.0,42.0,-100.00,NNE,21,4.0,6.0,58,0.00,,,0.00,423.000000,,2013-03-12 20:33:00,
2013-03-12 13:42:00,57.0,42.0,-100.00,NNE,21,4.0,6.0,58,0.00,,,0.00,423.000000,,2013-03-12 20:42:00,
2013-03-12 13:53:00,57.0,42.0,-100.00,NNE,21,4.0,6.0,58,0.00,,,0.00,423.000000,,2013-03-12 20:53:00,
2013-03-12 14:02:00,57.0,42.0,-100.00,NNE,21,4.0,6.0,58,0.00,,,0.00,423.000000,,2013-03-12 21:02:00,
2013-03-12 14:33:00,64.0,44.0,-100.00,NNE,23,4.0,8.0,48,0.00,,,0.00,667.000000,,2013-03-12 21:33:00,
2013-03-12 14:43:00,64.0,44.0,-100.00,NNE,23,4.0,8.0,48,0.00,,,0.00,667.000000,,2013-03-12 21:43:00,
2013-03-12 14:52:00,64.0,44.0,-100.00,NNE,23,4.0,8.0,48,0.00,,,0.00,667.000000,,2013-03-12 21:52:00,
2013-03-12 15:02:00,64.0,44.0,-100.00,NNE,23,4.0,8.0,48,0.00,,,0.00,667.000000,,2013-03-12 22:02:00,
2013-03-12 15:33:00,68.0,43.0,-100.00,East,98,4.0,10.0,41,0.00,,,0.00,644.000000,,2013-03-12 22:33:00,
2013-03-12 15:43:00,68.0,43.0,-100.00,East,98,4.0,10.0,41,0.00,,,0.00,644.000000,,2013-03-12 22:43:00,
2013-03-12 15:53:00,68.0,43.0,-100.00,East,98,4.0,10.0,41,0.00,,,0.00,644.000000,,2013-03-12 22:53:00,
2013-03-12 16:02:00,68.0,43.0,-100.00,East,98,4.0,10.0,41,0.00,,,0.00,644.000000,,2013-03-12 23:02:00,
2013-03-12 16:34:00,68.0,33.0,-100.00,WSW,245,7.0,21.0,27,0.00,,,0.00,498.000000,,2013-03-12 23:34:00,
2013-03-12 16:43:00,68.0,33.0,-100.00,WSW,245,7.0,21.0,27,0.00,,,0.00,498.000000,,2013-03-12 23:43:00,
2013-03-12 16:52:00,68.0,33.0,-100.00,WSW,245,7.0,21.0,27,0.00,,,0.00,498.000000,,2013-03-12 23:52:00,
2013-03-12 17:33:00,67.0,35.0,-100.00,WNW,282,3.0,10.0,30,0.00,,,0.00,261.000000,,2013-03-13 00:33:00,
2013-03-12 17:42:00,67.0,35.0,-100.00,WNW,282,3.0,10.0,30,0.00,,,0.00,261.000000,,2013-03-13 00:42:00,
2013-03-12 17:53:00,67.0,35.0,-100.00,WNW,282,3.0,10.0,30,0.00,,,0.00,261.000000,,2013-03-13 00:53:00,
2013-03-12 18:02:00,67.0,35.0,-100.00,WNW,282,3.0,10.0,30,0.00,,,0.00,261.000000,,2013-03-13 01:02:00,
2013-03-12 18:33:00,66.0,33.0,-100.00,NW,322,3.0,9.0,29,0.00,,,0.00,148.000000,,2013-03-13 01:33:00,
2013-03-12 18:43:00,66.0,33.0,-100.00,NW,322,3.0,9.0,29,0.00,,,0.00,148.000000,,2013-03-13 01:43:00,
2013-03-12 18:52:00,66.0,33.0,-100.00,NW,322,3.0,9.0,29,0.00,,,0.00,148.000000,,2013-03-13 01:52:00,
2013-03-12 19:02:00,66.0,33.0,-100.00,NW,322,3.0,9.0,29,0.00,,,0.00,148.000000,,2013-03-13 02:02:00,
2013-03-12 19:33:00,60.0,36.0,-100.00,WNW,293,5.0,7.0,40,0.00,,,0.00,34.000000,,2013-03-13 02:33:00,
2013-03-12 19:43:00,60.0,36.0,-100.00,WNW,293,5.0,7.0,40,0.00,,,0.00,34.000000,,2013-03-13 02:43:00,
2013-03-12 19:52:00,60.0,36.0,-100.00,WNW,293,5.0,7.0,40,0.00,,,0.00,34.000000,,2013-03-13 02:52:00,
2013-03-12 20:01:00,60.0,36.0,-100.00,WNW,293,5.0,7.0,40,0.00,,,0.00,34.000000,,2013-03-13 03:01:00,
2013-03-12 20:32:00,56.0,36.0,-100.00,WNW,283,5.0,9.0,46,0.00,,,0.00,1.000000,,2013-03-13 03:32:00,
2013-03-12 20:42:00,56.0,36.0,-100.00,WNW,283,5.0,9.0,46,0.00,,,0.00,1.000000,,2013-03-13 03:42:00,
2013-03-12 20:52:00,56.0,36.0,-100.00,WNW,283,5.0,9.0,46,0.00,,,0.00,1.000000,,2013-03-13 03:52:00,
2013-03-12 21:02:00,56.0,36.0,-100.00,WNW,283,5.0,9.0,46,0.00,,,0.00,1.000000,,2013-03-13 04:02:00,
2013-03-12 21:32:00,53.0,38.0,-100.00,West,277,5.0,8.0,57,0.00,,,0.00,1.000000,,2013-03-13 04:32:00,
2013-03-12 21:43:00,53.0,38.0,-100.00,West,277,5.0,8.0,57,0.00,,,0.00,1.000000,,2013-03-13 04:43:00,
2013-03-12 21:53:00,53.0,38.0,-100.00,West,277,5.0,8.0,57,0.00,,,0.00,1.000000,,2013-03-13 04:53:00,
2013-03-12 22:02:00,53.0,38.0,-100.00,West,277,5.0,8.0,57,0.00,,,0.00,1.000000,,2013-03-13 05:02:00,
2013-03-12 22:32:00,52.0,39.0,-100.00,West,268,3.0,10.0,60,0.00,,,0.00,1.000000,,2013-03-13 05:32:00,
2013-03-12 22:42:00,52.0,39.0,-100.00,West,268,3.0,10.0,60,0.00,,,0.00,1.000000,,2013-03-13 05:42:00,
2013-03-12 22:52:00,52.0,39.0,-100.00,West,268,3.0,10.0,60,0.00,,,0.00,1.000000,,2013-03-13 05:52:00,
2013-03-12 23:02:00,52.0,39.0,-100.00,West,268,3.0,10.0,60,0.00,,,0.00,1.000000,,2013-03-13 06:02:00,
2013-03-12 23:33:00,49.0,38.0,-100.00,SW,233,2.0,6.0,66,0.00,,,0.00,1.000000,,2013-03-13 06:33:00,
2013-03-12 23:42:00,49.0,38.0,-100.00,SW,233,2.0,6.0,66,0.00,,,0.00,1.000000,,2013-03-13 06:42:00,
2013-03-12 23:52:00,49.0,38.0,-100.00,SW,233,2.0,6.0,66,0.00,,,0.00,1.000000,,2013-03-13 06:52:00,